createdAt,value
2023-11-27T00:01:45.943Z,18.58
2023-11-27T00:04:17.986Z,17.63
2023-11-27T00:06:49.771Z,19.15
2023-11-27T00:09:22.697Z,19.23
2023-11-27T00:11:54.492Z,17.50
2023-11-27T00:14:26.268Z,19.88
2023-11-27T00:16:58.175Z,16.45
2023-11-27T00:19:29.979Z,18.52
2023-11-27T00:22:01.772Z,17.92
2023-11-27T00:24:33.627Z,15.77
2023-11-27T00:27:05.476Z,15.85
2023-11-27T00:29:37.391Z,15.65
2023-11-27T00:32:10.359Z,17.95
2023-11-27T00:34:42.492Z,16.95
2023-11-27T00:37:14.321Z,16.92
2023-11-27T00:39:46.188Z,16.73
2023-11-27T00:42:19.369Z,16.77
2023-11-27T00:44:51.124Z,15.35
2023-11-27T00:47:22.896Z,16.70
2023-11-27T00:49:54.829Z,18.48
2023-11-27T00:52:26.647Z,15.88
2023-11-27T00:54:58.461Z,17.00
2023-11-27T00:57:30.355Z,17.45
2023-11-27T01:00:02.142Z,17.35
2023-11-27T01:02:34.023Z,15.98
2023-11-27T01:05:08.933Z,16.30
2023-11-27T01:07:40.904Z,16.85
2023-11-27T01:10:12.668Z,16.80
2023-11-27T01:12:47.455Z,20.30
2023-11-27T01:15:20.850Z,20.15
2023-11-27T01:17:52.626Z,20.10
2023-11-27T01:20:24.400Z,18.45
2023-11-27T01:22:56.364Z,20.30
2023-11-27T01:25:28.125Z,22.40
2023-11-27T01:28:00.014Z,18.90
2023-11-27T01:30:31.824Z,19.20
2023-11-27T01:33:05.698Z,20.35
2023-11-27T01:35:37.639Z,17.60
2023-11-27T01:38:09.400Z,19.65
2023-11-27T01:40:41.213Z,17.48
2023-11-27T01:43:16.879Z,18.95
2023-11-27T01:45:50.583Z,17.75
2023-11-27T01:48:22.392Z,17.08
2023-11-27T01:50:54.223Z,23.05
2023-11-27T01:53:26.083Z,18.25
2023-11-27T01:55:57.894Z,17.73
2023-11-27T01:58:29.894Z,18.80
2023-11-27T02:01:01.879Z,19.30
2023-11-27T02:03:33.821Z,20.13
2023-11-27T02:06:06.041Z,18.05
2023-11-27T02:08:37.835Z,19.60
2023-11-27T02:11:09.622Z,19.75
2023-11-27T02:13:41.387Z,18.65
2023-11-27T02:16:13.303Z,21.20
2023-11-27T02:18:45.241Z,20.17
2023-11-27T02:21:19.071Z,18.85
2023-11-27T02:23:50.930Z,19.75
2023-11-27T02:26:23.098Z,20.17
2023-11-27T02:28:55.926Z,22.45
2023-11-27T02:31:29.248Z,19.05
2023-11-27T02:34:01.628Z,22.42
2023-11-27T02:36:39.917Z,19.02
2023-11-27T02:39:11.798Z,20.73
2023-11-27T02:41:43.605Z,20.67
2023-11-27T02:44:15.738Z,20.73
2023-11-27T02:46:47.941Z,20.73
2023-11-27T02:49:19.787Z,22.27
2023-11-27T02:51:51.595Z,23.55
2023-11-27T02:54:23.453Z,22.75
2023-11-27T02:56:55.274Z,20.75
2023-11-27T02:59:27.054Z,23.13
2023-11-27T03:01:58.902Z,26.08
2023-11-27T03:04:32.202Z,24.40
2023-11-27T03:07:04.227Z,22.15
2023-11-27T03:09:36.016Z,23.73
2023-11-27T03:12:08.034Z,23.42
2023-11-27T03:14:39.917Z,25.45
2023-11-27T03:17:11.739Z,24.42
2023-11-27T03:19:47.968Z,24.15
2023-11-27T03:22:21.876Z,21.63
2023-11-27T03:24:53.734Z,23.38
2023-11-27T03:27:25.570Z,25.80
2023-11-27T03:29:59.149Z,21.73
2023-11-27T03:32:32.269Z,24.73
2023-11-27T03:35:05.945Z,22.38
2023-11-27T03:37:37.837Z,26.90
2023-11-27T03:40:10.020Z,26.67
2023-11-27T03:42:42.509Z,25.52
2023-11-27T03:45:14.357Z,25.63
2023-11-27T03:47:46.173Z,24.92
2023-11-27T03:50:18.043Z,26.73
2023-11-27T03:52:49.883Z,27.02
2023-11-27T03:55:21.649Z,24.92
2023-11-27T03:57:53.482Z,25.48
2023-11-27T04:00:26.791Z,24.58
2023-11-27T04:02:58.601Z,26.80
2023-11-27T04:05:30.391Z,23.10
2023-11-27T04:08:02.433Z,22.52
2023-11-27T04:10:34.287Z,24.15
2023-11-27T04:13:06.380Z,24.10
2023-11-27T04:15:38.305Z,27.63
2023-11-27T04:18:10.525Z,24.27
2023-11-27T04:20:42.473Z,27.10
2023-11-27T04:23:14.277Z,25.25
2023-11-27T04:25:46.026Z,23.15
2023-11-27T04:28:17.826Z,23.05
2023-11-27T04:30:49.708Z,26.65
2023-11-27T04:33:21.566Z,22.80
2023-11-27T04:35:55.162Z,23.85
2023-11-27T04:38:27.022Z,21.05
2023-11-27T04:40:58.804Z,22.25
2023-11-27T04:43:30.623Z,26.08
2023-11-27T04:46:02.491Z,22.95
2023-11-27T04:48:35.089Z,26.77
2023-11-27T04:51:07.296Z,28.02
2023-11-27T04:53:39.061Z,26.48
2023-11-27T04:56:12.089Z,23.50
2023-11-27T04:58:45.060Z,23.63
2023-11-27T05:01:16.888Z,24.90
2023-11-27T05:03:48.782Z,25.73
2023-11-27T05:06:20.620Z,23.95
2023-11-27T05:08:52.394Z,29.60
2023-11-27T05:11:25.097Z,28.55
2023-11-27T05:13:56.923Z,25.23
2023-11-27T05:16:28.744Z,29.75
2023-11-27T05:19:00.705Z,29.77
2023-11-27T05:21:32.500Z,28.35
2023-11-27T05:24:04.476Z,26.48
2023-11-27T05:26:36.248Z,27.13
2023-11-27T05:29:08.545Z,28.55
2023-11-27T05:31:40.452Z,28.65
2023-11-27T05:34:12.522Z,29.02
2023-11-27T05:36:44.758Z,29.42
2023-11-27T05:39:16.973Z,25.90
2023-11-27T05:41:50.946Z,25.33
2023-11-27T05:44:22.718Z,25.65
2023-11-27T05:46:54.639Z,25.98
2023-11-27T05:49:26.589Z,25.48
2023-11-27T05:51:59.303Z,27.27
2023-11-27T05:54:31.323Z,29.52
2023-11-27T05:57:03.843Z,27.10
2023-11-27T05:59:35.613Z,28.92
2023-11-27T06:02:07.886Z,28.63
2023-11-27T06:04:39.682Z,29.38
2023-11-27T06:07:11.466Z,30.23
2023-11-27T06:09:43.833Z,28.08
2023-11-27T06:12:16.067Z,28.75
2023-11-27T06:14:47.836Z,30.92
2023-11-27T06:17:19.784Z,30.63
2023-11-27T06:19:51.567Z,31.42
2023-11-27T06:22:24.794Z,30.30
2023-11-27T06:24:58.088Z,29.60
2023-11-27T06:27:30.319Z,32.55
2023-11-27T06:30:02.132Z,32.47
2023-11-27T06:32:35.318Z,31.55
2023-11-27T06:35:07.655Z,35.88
2023-11-27T06:37:39.436Z,33.40
2023-11-27T06:40:11.415Z,32.50
2023-11-27T06:42:43.232Z,34.88
2023-11-27T06:45:15.052Z,32.58
2023-11-27T06:47:46.854Z,34.25
2023-11-27T06:50:22.305Z,31.48
2023-11-27T06:52:54.231Z,32.50
2023-11-27T06:55:26.010Z,33.38
2023-11-27T07:00:33.160Z,32.25
2023-11-27T07:03:05.220Z,32.05
2023-11-27T07:05:37.179Z,31.88
2023-11-27T07:08:09.285Z,33.95
2023-11-27T07:10:41.305Z,31.75
2023-11-27T07:13:13.388Z,32.33
2023-11-27T07:15:45.202Z,37.55
2023-11-27T07:18:20.055Z,33.53
2023-11-27T07:20:53.382Z,33.85
2023-11-27T07:23:28.307Z,31.42
2023-11-27T07:26:00.133Z,31.75
2023-11-27T07:28:31.964Z,33.08
2023-11-27T07:31:04.460Z,33.25
2023-11-27T07:33:36.286Z,34.83
2023-11-27T07:36:08.689Z,33.22
2023-11-27T07:38:42.161Z,35.58
2023-11-27T07:41:14.460Z,31.05
2023-11-27T07:43:46.385Z,31.92
2023-11-27T07:46:18.477Z,32.58
2023-11-27T07:48:50.433Z,33.95
2023-11-27T07:51:22.189Z,29.52
2023-11-27T07:53:53.939Z,35.30
2023-11-27T07:56:29.885Z,31.10
2023-11-27T07:59:01.735Z,30.80
2023-11-27T08:01:33.578Z,28.70
2023-11-27T08:04:05.551Z,27.02
2023-11-27T08:06:37.487Z,29.73
2023-11-27T08:09:09.377Z,27.00
2023-11-27T08:11:43.380Z,26.75
2023-11-27T08:14:15.238Z,27.45
2023-11-27T08:16:49.075Z,27.45
2023-11-27T08:19:22.340Z,27.33
2023-11-27T08:21:55.178Z,24.40
2023-11-27T08:24:26.967Z,23.92
2023-11-27T08:26:59.089Z,24.73
2023-11-27T08:29:32.308Z,26.77
2023-11-27T08:32:04.497Z,25.33
2023-11-27T08:34:36.319Z,29.85
2023-11-27T08:37:11.019Z,27.38
2023-11-27T08:39:42.866Z,26.27
2023-11-27T08:42:14.650Z,26.90
2023-11-27T08:44:46.416Z,26.90
2023-11-27T08:47:18.720Z,28.83
2023-11-27T08:49:50.549Z,24.30
2023-11-27T08:52:22.348Z,21.40
2023-11-27T08:54:56.730Z,24.85
2023-11-27T08:57:28.585Z,24.08
2023-11-27T09:00:00.406Z,22.10
2023-11-27T09:02:32.342Z,24.20
2023-11-27T09:05:05.060Z,24.17
2023-11-27T09:07:36.902Z,27.30
2023-11-27T09:10:09.277Z,20.42
2023-11-27T09:12:41.062Z,22.63
2023-11-27T09:15:12.830Z,18.20
2023-11-27T09:17:45.674Z,22.73
2023-11-27T09:20:17.937Z,25.55
2023-11-27T09:22:49.779Z,21.23
2023-11-27T09:25:22.341Z,22.90
2023-11-27T09:27:54.132Z,24.17
2023-11-27T09:30:26.015Z,21.98
2023-11-27T09:32:57.844Z,22.35
2023-11-27T09:35:29.703Z,21.55
2023-11-27T09:38:02.136Z,21.50
2023-11-27T09:40:40.559Z,23.95
2023-11-27T09:43:12.581Z,19.42
2023-11-27T09:45:44.372Z,18.95
2023-11-27T09:48:18.644Z,20.33
2023-11-27T09:50:55.838Z,20.77
2023-11-27T09:53:31.051Z,19.40
2023-11-27T09:56:04.237Z,16.70
2023-11-27T09:58:44.076Z,18.02
2023-11-27T10:01:17.112Z,19.03
2023-11-27T10:03:49.314Z,18.60
2023-11-27T10:06:21.250Z,19.67
2023-11-27T10:09:09.246Z,22.92
2023-11-27T10:11:43.051Z,18.92
2023-11-27T10:14:34.995Z,21.88
2023-11-27T10:17:07.475Z,23.23
2023-11-27T10:19:41.478Z,18.13
2023-11-27T10:22:13.486Z,19.63
2023-11-27T10:24:45.822Z,18.55
2023-11-27T10:27:17.626Z,15.27
2023-11-27T10:29:49.452Z,15.68
2023-11-27T10:32:26.827Z,16.00
2023-11-27T10:34:59.128Z,16.15
2023-11-27T10:37:36.952Z,17.90
2023-11-27T10:40:15.751Z,16.50
2023-11-27T10:42:52.101Z,15.52
2023-11-27T10:45:23.919Z,14.77
2023-11-27T10:47:58.289Z,19.75
2023-11-27T10:50:35.570Z,25.55
2023-11-27T10:53:08.556Z,18.65
2023-11-27T10:55:43.595Z,14.73
2023-11-27T10:58:15.665Z,23.08
2023-11-27T11:00:57.608Z,22.77
2023-11-27T11:03:33.800Z,17.17
2023-11-27T11:06:09.831Z,15.48
2023-11-27T11:08:44.949Z,17.42
2023-11-27T11:11:19.183Z,20.33
2023-11-27T11:13:52.547Z,17.95
2023-11-27T11:16:41.737Z,14.02
2023-11-27T11:19:38.288Z,15.70
2023-11-27T11:22:10.047Z,15.05
2023-11-27T11:25:21.470Z,14.88
2023-11-27T11:28:07.472Z,15.23
2023-11-27T11:30:39.558Z,15.52
2023-11-27T11:33:20.052Z,16.45
2023-11-27T11:38:24.184Z,16.63
2023-11-27T11:40:57.743Z,18.77
2023-11-27T11:43:29.912Z,17.38
2023-11-27T11:46:01.901Z,17.05
2023-11-27T11:48:38.413Z,18.88
2023-11-27T11:51:17.167Z,15.25
2023-11-27T11:53:53.335Z,16.65
2023-11-27T11:56:30.271Z,21.55
2023-11-27T11:59:11.251Z,18.85
2023-11-27T12:01:43.082Z,17.30
2023-11-27T12:04:15.341Z,14.18
2023-11-27T12:06:47.434Z,14.02
2023-11-27T12:09:20.158Z,16.20
2023-11-27T12:11:59.286Z,16.83
2023-11-27T12:14:34.124Z,18.10
2023-11-27T12:17:08.718Z,21.88
2023-11-27T12:19:40.716Z,16.88
2023-11-27T12:22:13.175Z,17.20
2023-11-27T12:24:47.308Z,20.90
2023-11-27T12:27:19.123Z,22.73
2023-11-27T12:29:51.182Z,19.77
2023-11-27T12:32:26.212Z,17.27
2023-11-27T12:34:58.111Z,18.23
2023-11-27T12:37:30.923Z,17.67
2023-11-27T12:40:03.908Z,20.40
2023-11-27T12:42:37.407Z,17.67
2023-11-27T12:45:09.962Z,21.35
2023-11-27T12:47:51.404Z,21.48
2023-11-27T12:50:30.463Z,22.10
2023-11-27T12:53:08.558Z,21.48
2023-11-27T12:55:49.083Z,20.08
2023-11-27T12:58:22.796Z,22.48
2023-11-27T13:00:57.694Z,22.58
2023-11-27T13:03:32.302Z,21.05
2023-11-27T13:06:04.570Z,21.60
2023-11-27T13:08:36.342Z,19.08
2023-11-27T13:11:08.133Z,20.45
2023-11-27T13:13:41.033Z,19.38
2023-11-27T13:16:18.707Z,19.70
2023-11-27T13:18:50.603Z,20.80
2023-11-27T13:21:23.182Z,18.85
2023-11-27T13:23:54.965Z,22.70
2023-11-27T13:26:29.902Z,20.83
2023-11-27T13:29:02.081Z,23.20
2023-11-27T13:31:38.249Z,25.88
2023-11-27T13:34:33.380Z,21.80
2023-11-27T13:37:11.832Z,23.35
2023-11-27T13:39:55.970Z,22.08
2023-11-27T13:42:32.356Z,24.35
2023-11-27T13:45:05.057Z,27.27
2023-11-27T13:47:37.798Z,25.45
2023-11-27T13:50:10.858Z,26.80
2023-11-27T13:52:44.158Z,29.73
2023-11-27T13:55:19.172Z,29.50
2023-11-27T13:57:53.336Z,28.83
2023-11-27T14:00:27.835Z,26.95
2023-11-27T14:03:03.849Z,29.25
2023-11-27T14:05:38.935Z,27.83
2023-11-27T14:08:16.726Z,30.17
2023-11-27T14:11:09.805Z,31.77
2023-11-27T14:13:47.608Z,26.70
2023-11-27T14:16:21.419Z,29.77
2023-11-27T14:19:13.275Z,31.85
2023-11-27T14:22:03.499Z,30.60
2023-11-27T14:24:55.531Z,30.63
2023-11-27T14:27:40.888Z,37.28
2023-11-27T14:30:16.277Z,34.65
2023-11-27T14:32:48.821Z,34.20
2023-11-27T14:35:21.427Z,37.17
2023-11-27T14:37:53.518Z,34.17
2023-11-27T14:40:32.585Z,37.70
2023-11-27T14:43:04.483Z,60.83
2023-11-27T14:45:43.706Z,56.40
2023-11-27T14:48:17.134Z,102.85
2023-11-27T14:50:49.000Z,60.97
2023-11-27T14:53:22.599Z,46.58
2023-11-27T14:55:54.420Z,45.60
2023-11-27T14:58:26.607Z,48.38
2023-11-27T15:01:03.292Z,44.28
2023-11-27T15:03:36.140Z,45.72
2023-11-27T15:06:09.132Z,51.10
2023-11-27T15:08:40.955Z,45.80
2023-11-27T15:11:14.056Z,49.00
2023-11-27T15:13:46.772Z,53.63
2023-11-27T15:16:21.719Z,48.72
2023-11-27T15:18:53.854Z,42.50
2023-11-27T15:21:25.840Z,53.80
2023-11-27T15:23:57.681Z,50.65
2023-11-27T15:26:29.425Z,57.90
2023-11-27T15:29:01.245Z,56.22
2023-11-27T15:31:36.711Z,50.25
2023-11-27T15:34:11.359Z,50.90
2023-11-27T15:36:43.154Z,73.25
2023-11-27T15:39:24.565Z,47.85
2023-11-27T15:41:57.380Z,43.78
2023-11-27T15:44:29.207Z,64.55
2023-11-27T15:47:02.047Z,57.70
2023-11-27T15:49:34.459Z,62.80
2023-11-27T15:52:07.900Z,69.20
2023-11-27T15:54:40.218Z,64.45
2023-11-27T15:57:12.134Z,68.35
2023-11-27T15:59:44.806Z,62.90
2023-11-27T16:02:16.785Z,65.18
2023-11-27T16:04:48.652Z,59.90
2023-11-27T16:07:22.096Z,67.60
2023-11-27T16:09:53.879Z,71.72
2023-11-27T16:12:29.258Z,71.20
2023-11-27T16:15:01.035Z,57.33
2023-11-27T16:17:47.434Z,76.03
2023-11-27T16:20:26.074Z,50.88
2023-11-27T16:22:58.061Z,46.17
2023-11-27T16:25:29.858Z,49.72
2023-11-27T16:28:05.477Z,48.33
2023-11-27T16:30:37.319Z,46.45
2023-11-27T16:33:09.442Z,43.00
2023-11-27T16:35:42.728Z,47.35
2023-11-27T16:38:14.605Z,51.47
2023-11-27T16:40:46.623Z,57.85
2023-11-27T16:43:18.514Z,46.45
2023-11-27T16:45:50.353Z,48.25
2023-11-27T16:48:22.687Z,43.88
2023-11-27T16:50:54.490Z,46.10
2023-11-27T16:53:29.339Z,54.50
2023-11-27T16:56:03.046Z,55.28
2023-11-27T16:58:34.868Z,53.10
2023-11-27T17:01:08.018Z,53.78
2023-11-27T17:03:43.189Z,48.88
2023-11-27T17:06:15.354Z,56.13
2023-11-27T17:08:47.937Z,55.63
2023-11-27T17:11:19.768Z,69.15
2023-11-27T17:13:51.752Z,93.63
2023-11-27T17:16:25.072Z,84.35
2023-11-27T17:18:57.305Z,98.90
2023-11-27T17:21:29.442Z,113.20
2023-11-27T17:24:01.486Z,93.30
2023-11-27T17:26:33.387Z,103.38
2023-11-27T17:29:05.354Z,88.45
2023-11-27T17:31:37.142Z,82.25
2023-11-27T17:34:08.961Z,65.50
2023-11-27T17:36:40.775Z,65.30
2023-11-27T17:39:14.948Z,67.63
2023-11-27T17:41:47.520Z,69.28
2023-11-27T17:44:20.674Z,59.13
2023-11-27T17:46:52.632Z,58.65
2023-11-27T17:49:24.460Z,57.58
2023-11-27T17:51:57.368Z,117.32
2023-11-27T17:54:29.185Z,81.00
2023-11-27T17:57:00.940Z,89.85
2023-11-27T17:59:32.803Z,86.03
2023-11-27T18:02:07.014Z,78.15
2023-11-27T18:04:40.293Z,77.32
2023-11-27T18:07:12.112Z,79.22
2023-11-27T18:09:44.541Z,64.38
2023-11-27T18:12:16.673Z,70.10
2023-11-27T18:14:48.943Z,72.60
2023-11-27T18:17:21.156Z,65.47
2023-11-27T18:19:53.040Z,56.13
2023-11-27T18:22:25.093Z,56.85
2023-11-27T18:24:56.884Z,60.83
2023-11-27T18:27:28.664Z,63.45
2023-11-27T18:30:00.583Z,85.05
2023-11-27T18:32:32.901Z,104.63
2023-11-27T18:35:05.183Z,103.68
2023-11-27T18:37:37.379Z,90.10
2023-11-27T18:40:15.512Z,71.88
2023-11-27T18:42:52.188Z,81.32
2023-11-27T18:45:25.678Z,75.78
2023-11-27T18:47:58.027Z,78.80
2023-11-27T18:50:29.886Z,73.88
2023-11-27T18:53:02.153Z,97.95
2023-11-27T18:55:34.091Z,93.13
2023-11-27T18:58:05.947Z,100.82
2023-11-27T19:00:37.767Z,97.65
2023-11-27T19:03:10.601Z,94.35
2023-11-27T19:05:42.451Z,87.40
2023-11-27T19:08:14.267Z,97.30
2023-11-27T19:10:46.090Z,107.25
2023-11-27T19:13:17.973Z,101.30
2023-11-27T19:15:52.845Z,86.15
2023-11-27T19:18:25.610Z,80.57
2023-11-27T19:20:57.422Z,67.63
2023-11-27T19:23:29.520Z,70.85
2023-11-27T19:26:01.589Z,78.78
2023-11-27T19:28:35.794Z,73.10
2023-11-27T19:31:08.196Z,66.03
2023-11-27T19:33:39.999Z,69.00
2023-11-27T19:36:22.118Z,71.75
2023-11-27T19:38:54.223Z,69.60
2023-11-27T19:41:25.996Z,86.47
2023-11-27T19:43:57.917Z,74.20
2023-11-27T19:46:29.787Z,71.03
2023-11-27T19:49:03.292Z,69.90
2023-11-27T19:51:35.145Z,71.45
2023-11-27T19:54:07.539Z,73.25
2023-11-27T19:56:40.967Z,65.95
2023-11-27T19:59:12.876Z,66.82
2023-11-27T20:01:44.767Z,68.18
2023-11-27T20:04:16.566Z,70.70
2023-11-27T20:06:48.408Z,75.75
2023-11-27T20:09:20.347Z,72.40
2023-11-27T20:11:54.164Z,66.95
2023-11-27T20:14:25.948Z,86.20
2023-11-27T20:16:59.588Z,72.65
2023-11-27T20:19:31.432Z,70.00
2023-11-27T20:22:04.723Z,72.97
2023-11-27T20:24:36.895Z,82.82
2023-11-27T20:27:08.687Z,62.97
2023-11-27T20:29:46.280Z,72.65
2023-11-27T20:32:18.184Z,81.15
2023-11-27T20:34:50.224Z,65.38
2023-11-27T20:37:22.071Z,75.85
2023-11-27T20:39:54.316Z,70.60
2023-11-27T20:42:26.086Z,66.80
2023-11-27T20:44:57.847Z,74.88
2023-11-27T20:47:30.499Z,79.00
2023-11-27T20:50:02.484Z,74.90
2023-11-27T20:52:34.590Z,64.53
2023-11-27T20:55:08.439Z,59.70
2023-11-27T20:57:41.580Z,73.63
2023-11-27T21:00:13.796Z,67.95
2023-11-27T21:02:46.557Z,71.53
2023-11-27T21:05:18.349Z,70.03
2023-11-27T21:07:50.165Z,74.10
2023-11-27T21:10:22.312Z,76.55
2023-11-27T21:12:54.335Z,74.70
2023-11-27T21:15:26.789Z,71.55
2023-11-27T21:17:58.833Z,81.35
2023-11-27T21:20:30.761Z,72.88
2023-11-27T21:23:02.634Z,66.90
2023-11-27T21:25:35.073Z,66.40
2023-11-27T21:28:06.934Z,71.72
2023-11-27T21:30:38.994Z,68.15
2023-11-27T21:33:10.841Z,71.07
2023-11-27T21:35:42.725Z,71.28
2023-11-27T21:38:14.562Z,92.00
2023-11-27T21:40:46.448Z,96.90
2023-11-27T21:43:19.207Z,101.40
2023-11-27T21:45:51.094Z,85.18
2023-11-27T21:48:23.486Z,68.82
2023-11-27T21:50:55.617Z,62.63
2023-11-27T21:53:27.377Z,70.43
2023-11-27T21:55:59.253Z,66.15
2023-11-27T21:58:31.091Z,82.45
2023-11-27T22:01:15.519Z,84.22
2023-11-27T22:03:49.582Z,89.47
2023-11-27T22:06:21.433Z,88.70
2023-11-27T22:08:53.193Z,81.50
2023-11-27T22:11:25.216Z,80.90
2023-11-27T22:13:57.123Z,79.57
2023-11-27T22:16:29.119Z,80.05
2023-11-27T22:19:01.449Z,82.93
2023-11-27T22:21:33.405Z,78.43
2023-11-27T22:24:05.908Z,69.43
2023-11-27T22:26:42.260Z,71.32
2023-11-27T22:29:14.076Z,76.13
2023-11-27T22:31:45.932Z,76.85
2023-11-27T22:34:18.882Z,76.32
2023-11-27T22:36:50.669Z,73.65
2023-11-27T22:39:25.151Z,77.28
2023-11-27T22:41:56.962Z,82.05
2023-11-27T22:44:28.755Z,91.38
2023-11-27T22:47:00.918Z,87.25
2023-11-27T22:49:32.733Z,76.75
2023-11-27T22:52:04.785Z,91.05
2023-11-27T22:54:42.997Z,88.85
2023-11-27T22:57:15.243Z,93.10
2023-11-27T22:59:47.240Z,84.68
2023-11-27T23:02:19.441Z,86.93
2023-11-27T23:04:51.400Z,92.28
2023-11-27T23:07:23.423Z,94.82
2023-11-27T23:09:55.293Z,102.32
2023-11-27T23:12:27.654Z,106.57
2023-11-27T23:14:59.759Z,107.88
2023-11-27T23:17:31.642Z,105.38
2023-11-27T23:20:03.615Z,101.55
2023-11-27T23:22:35.734Z,109.97
2023-11-27T23:25:07.830Z,104.60
2023-11-27T23:27:39.632Z,118.82
2023-11-27T23:30:12.163Z,126.13
2023-11-27T23:32:44.328Z,122.88
2023-11-27T23:35:16.139Z,108.70
2023-11-27T23:37:48.416Z,99.15
2023-11-27T23:40:20.348Z,85.20
2023-11-27T23:42:52.170Z,83.60
2023-11-27T23:45:23.939Z,87.53
2023-11-27T23:47:56.958Z,79.78
2023-11-27T23:50:28.780Z,82.32
2023-11-27T23:53:06.476Z,89.68
2023-11-27T23:55:40.274Z,94.90
2023-11-27T23:58:12.393Z,96.50
